Flight Track Log - Related Links

Times and Time Zones

All times are in EDT time to prevent confusion due to time zone crossing. See the ABX501 flight status page for this flight to view local times or setup timezone preferences in your user account.

Time Position Orientation Groundspeed Altitude Reporting Facility
EDT Latitude Longitude Course Direction KTS MPH feet Rate Location/Type
Sun 06:17:49 PM 39.0500 -84.6833 270° West 155 178 1,300  Level Cincinnati TRACON
Sun 06:18:13 PM 39.0500 -84.7000 270° West 158 182 2,100 1,857 Climbing Cincinnati TRACON
Sun 06:19:13 PM 39.0500 -84.7833 270° West 205 236 3,900 1,950 Climbing Cincinnati TRACON
Sun 06:20:13 PM 39.0000 -84.8167 207° Southwest 258 297 6,000 2,289 Climbing Cincinnati TRACON
Sun 06:22:06 PM 38.8664 -84.8614 195° South 272 313 10,500 2,023 Climbing Indianapolis Center
Sun 06:23:08 PM 38.7828 -84.9008 200° South 328 377 11,900 2,016 Climbing Indianapolis Center
Sun 06:24:11 PM 38.7067 -84.9772 218° Southwest 349 402 14,700 2,736 Climbing Indianapolis Center
Sun 06:25:13 PM 38.6297 -85.0844 227° Southwest 353 406 17,600 2,516 Climbing Indianapolis Center
Sun 06:26:15 PM 38.5639 -85.1817 229° Southwest 361 415 19,900 2,274 Climbing Indianapolis Center
Sun 06:27:17 PM 38.4989 -85.2775 229° Southwest 366 421 22,300 2,129 Climbing Indianapolis Center
Sun 06:28:19 PM 38.4286 -85.3783 228° Southwest 374 430 24,300 1,839 Climbing Indianapolis Center
Sun 06:29:21 PM 38.3439 -85.5022 229° Southwest 382 440 26,100 871 Climbing Indianapolis Center
Sun 06:30:23 PM 38.2692 -85.6089 228° Southwest 395 455 26,100 339 Level Indianapolis Center
Sun 06:31:25 PM 38.1950 -85.7128 228° Southwest 395 455 26,800 1,210 Climbing Indianapolis Center
Sun 06:32:27 PM 38.1217 -85.8189 229° Southwest 397 457 28,600 1,645 Climbing Indianapolis Center
Sun 06:33:29 PM 38.0467 -85.9278 229° Southwest 405 466 30,200 1,742 Climbing Indianapolis Center
Sun 06:34:31 PM 37.9706 -86.0336 228° Southwest 404 465 32,200 1,742 Climbing Indianapolis Center
Sun 06:35:33 PM 37.8969 -86.1400 229° Southwest 400 460 33,800 871 Climbing Indianapolis Center
Sun 06:36:35 PM 37.8161 -86.2536 228° Southwest 394 453 34,000 97 Climbing Indianapolis Center
Sun 06:37:37 PM 37.7456 -86.3553 229° Southwest 385 443 34,000  Level Indianapolis Center
Sun 06:38:39 PM 37.6714 -86.4558 227° Southwest 386 444 34,000  Level Indianapolis Center
Sun 06:39:41 PM 37.5889 -86.5714 228° Southwest 396 456 34,000  Level Indianapolis Center
Sun 06:40:43 PM 37.5089 -86.6828 228° Southwest 399 459 34,000  Level Indianapolis Center
Sun 06:41:45 PM 37.4344 -86.7867 228° Southwest 397 457 34,000  Level Indianapolis Center
Sun 06:42:48 PM 37.3592 -86.8914 228° Southwest 400 460 34,000  Level Indianapolis Center
Sun 06:43:50 PM 37.2842 -86.9947 228° Southwest 399 459 34,000  Level Indianapolis Center
Sun 06:44:52 PM 37.2100 -87.0981 228° Southwest 396 456 34,000  Level Indianapolis Center
Sun 06:45:54 PM 37.1347 -87.2008 227° Southwest 397 457 34,000  Level Indianapolis Center
Sun 06:46:56 PM 37.0483 -87.3197 228° Southwest 394 453 34,000  Level Indianapolis Center
Sun 06:47:56 PM 36.9731 -87.4217 227° Southwest 393 452 34,000  Level Memphis Center
Sun 06:48:58 PM 36.8992 -87.5233 228° Southwest 393 452 34,000  Level Memphis Center
Sun 06:50:01 PM 36.8244 -87.6228 227° Southwest 392 451 34,000  Level Memphis Center
Sun 06:51:03 PM 36.7503 -87.7222 227° Southwest 390 449 34,000  Level Memphis Center
Sun 06:52:05 PM 36.6772 -87.8219 228° Southwest 389 448 34,000  Level Memphis Center
Sun 06:53:07 PM 36.6028 -87.9214 227° Southwest 389 448 34,000  Level Memphis Center
Sun 06:54:09 PM 36.5161 -88.0369 227° Southwest 389 448 34,000  Level Memphis Center
Sun 06:55:11 PM 36.4481 -88.1272 227° Southwest 389 448 34,000  Level Memphis Center
Sun 06:56:13 PM 36.3739 -88.2258 227° Southwest 389 448 34,000  Level Memphis Center
Sun 06:57:15 PM 36.3003 -88.3228 227° Southwest 387 445 34,000  Level Memphis Center
Sun 06:58:17 PM 36.2117 -88.4408 227° Southwest 387 445 34,000  Level Memphis Center
Sun 06:59:19 PM 36.1369 -88.5383 227° Southwest 388 447 34,000  Level Memphis Center
Sun 07:00:21 PM 36.0619 -88.6369 227° Southwest 390 449 34,000  Level Memphis Center
Sun 07:01:23 PM 35.9858 -88.7347 226° Southwest 391 450 34,000  Level Memphis Center
Sun 07:02:25 PM 35.9111 -88.8331 227° Southwest 390 449 34,000  Level Memphis Center
Sun 07:03:27 PM 35.8358 -88.9308 226° Southwest 391 450 34,000  Level Memphis Center
Sun 07:04:29 PM 35.7603 -89.0289 226° Southwest 392 451 34,000  Level Memphis Center
Sun 07:05:31 PM 35.6817 -89.1300 226° Southwest 390 449 34,000  Level Memphis Center
Sun 07:06:33 PM 35.5933 -89.2436 226° Southwest 390 449 34,000  Level Memphis Center
Sun 07:07:35 PM 35.5178 -89.3408 226° Southwest 390 449 34,000  Level Memphis Center
Sun 07:08:37 PM 35.4417 -89.4386 226° Southwest 392 451 34,000  Level Memphis Center
Sun 07:09:39 PM 35.3669 -89.5350 226° Southwest 389 448 34,000  Level Memphis Center
Sun 07:10:41 PM 35.2922 -89.6308 226° Southwest 387 445 34,000  Level Memphis Center
Sun 07:11:43 PM 35.2125 -89.7217 223° Southwest 389 448 34,000  Level Memphis Center
Sun 07:12:45 PM 35.1267 -89.8044 218° Southwest 391 450 34,000  Level Memphis Center
Sun 07:13:47 PM 35.0261 -89.9008 218° Southwest 394 453 34,000  Level Memphis Center
Sun 07:14:50 PM 34.9408 -89.9839 219° Southwest 394 453 34,000  Level Memphis Center
Sun 07:15:52 PM 34.8544 -90.0650 218° Southwest 394 453 34,000  Level Memphis Center
Sun 07:16:54 PM 34.7672 -90.1469 218° Southwest 395 455 34,000  Level Memphis Center
Sun 07:17:56 PM 34.6806 -90.2275 217° Southwest 391 450 34,000  Level Memphis Center
Sun 07:18:58 PM 34.5789 -90.3242 218° Southwest 393 452 34,000  Level Memphis Center
Sun 07:20:00 PM 34.4914 -90.4050 217° Southwest 394 453 34,000  Level Memphis Center
Sun 07:21:02 PM 34.4033 -90.4875 218° Southwest 395 455 34,000  Level Memphis Center
Sun 07:22:04 PM 34.3158 -90.5703 218° Southwest 397 457 34,000  Level Memphis Center
Sun 07:23:06 PM 34.2267 -90.6514 217° Southwest 397 457 34,000  Level Memphis Center
Sun 07:24:08 PM 34.1386 -90.7331 218° Southwest 396 456 34,000  Level Memphis Center
Sun 07:25:10 PM 34.0514 -90.8144 218° Southwest 393 452 34,000  Level Memphis Center
Sun 07:26:12 PM 33.9486 -90.9083 217° Southwest 394 453 34,000  Level Memphis Center
Sun 07:27:14 PM 33.8600 -90.9889 217° Southwest 394 453 34,000  Level Memphis Center
Sun 07:28:16 PM 33.7844 -91.0600 218° Southwest 392 451 34,000  Level Memphis Center
Sun 07:29:18 PM 33.6806 -91.1544 217° Southwest 393 452 34,000  Level Memphis Center
Sun 07:30:20 PM 33.5947 -91.2331 217° Southwest 393 452 34,000  Level Memphis Center
Sun 07:31:22 PM 33.5072 -91.3108 217° Southwest 393 452 34,000  Level Memphis Center
Sun 07:32:24 PM 33.4208 -91.3894 217° Southwest 393 452 34,000  Level Memphis Center
Sun 07:33:26 PM 33.3356 -91.4650 217° Southwest 389 448 34,000  Level Memphis Center
Sun 07:34:28 PM 33.2347 -91.5583 218° Southwest 386 444 34,000  Level Memphis Center
Sun 07:35:30 PM 33.1486 -91.6344 217° Southwest 387 445 34,000  Level Memphis Center
Sun 07:36:32 PM 33.0628 -91.7117 217° Southwest 389 448 34,000  Level Memphis Center
Sun 07:37:34 PM 32.9781 -91.7869 217° Southwest 386 444 34,000  Level Memphis Center
Sun 07:38:37 PM 32.8750 -91.8786 217° Southwest 386 444 34,000  Level Memphis Center
Sun 07:39:35 PM 32.8061 -91.9417 218° Southwest 385 443 34,000  Level Fort Worth Center
Sun 07:41:43 PM 32.6186 -92.1081 217° Southwest 383 441 34,000  Level Memphis Center
Sun 07:42:45 PM 32.5325 -92.1850 217° Southwest 384 442 34,000  Level Memphis Center
Sun 07:43:47 PM 32.4475 -92.2614 217° Southwest 384 442 34,000  Level Memphis Center
Sun 07:45:03 PM 32.3264 -92.3675 217° Southwest 385 443 34,000  Level Houston Center
Sun 07:46:05 PM 32.2425 -92.4442 218° Southwest 383 441 34,000  Level Houston Center
Sun 07:47:07 PM 32.1558 -92.5186 216° Southwest 385 443 34,000  Level Houston Center
Sun 07:48:09 PM 32.0697 -92.5931 216° Southwest 384 442 34,000 -48 Level Houston Center
Sun 07:49:11 PM 31.9861 -92.6686 217° Southwest 380 437 33,900  Descending Houston Center
Sun 07:50:13 PM 31.9033 -92.7456 218° Southwest 379 436 34,000 48 Climbing Houston Center
Sun 07:51:15 PM 31.8225 -92.8247 220° Southwest 378 435 34,000 -48 Level Houston Center
Sun 07:52:17 PM 31.7250 -92.9183 219° Southwest 378 435 33,900  Descending Houston Center
Sun 07:53:19 PM 31.6481 -92.9911 219° Southwest 362 417 34,000 48 Climbing Houston Center
Sun 07:54:21 PM 31.5733 -93.0631 219° Southwest 351 404 34,000  Level Houston Center
Sun 07:55:23 PM 31.4994 -93.1353 220° Southwest 347 399 34,000  Level Houston Center
Sun 07:56:25 PM 31.4242 -93.2058 219° Southwest 348 400 34,000  Level Houston Center
Sun 07:57:27 PM 31.3408 -93.2872 220° Southwest 348 400 34,000  Level Houston Center
Sun 07:58:29 PM 31.2589 -93.3644 219° Southwest 350 403 34,000  Level Houston Center
Sun 07:59:30 PM 31.1839 -93.4356 219° Southwest 348 400 34,000  Level Houston Center
Sun 08:00:32 PM 31.1089 -93.5083 220° Southwest 350 403 34,000  Level Houston Center
Sun 08:01:34 PM 31.0342 -93.5786 219° Southwest 348 400 34,000  Level Houston Center
Sun 08:02:36 PM 30.9594 -93.6497 219° Southwest 346 398 34,000 -97 Level Houston Center
Sun 08:03:38 PM 30.8694 -93.7356 219° Southwest 351 404 33,800 -1,403 Descending Houston Center
Sun 08:04:40 PM 30.7925 -93.8078 219° Southwest 354 407 31,100 -2,565 Descending Houston Center
Sun 08:05:42 PM 30.7156 -93.8817 220° Southwest 360 414 28,500 -2,488 Descending Houston Center
Sun 08:06:43 PM 30.6397 -93.9536 219° Southwest 357 411 26,000 -2,439 Descending Houston Center
Sun 08:07:45 PM 30.5644 -94.0233 219° Southwest 351 404 23,500 -2,468 Descending Houston Center
Sun 08:08:47 PM 30.4900 -94.0931 219° Southwest 348 400 20,900 -2,710 Descending Houston Center
Sun 08:09:49 PM 30.4011 -94.1767 219° Southwest 346 398 17,900 -2,769 Descending Houston Center
Sun 08:10:05 PM 30.3792 -94.1978 220° Southwest 346 398 17,300 -2,419 Descending Houston Center
Sun 08:10:51 PM 30.3264 -94.2472 219° Southwest 347 399 15,400 -2,618 Descending Houston Center
Sun 08:11:00 PM 30.3119 -94.2600 217° Southwest 348 400 14,900 -2,323 Descending Houston Center
Sun 08:11:53 PM 30.2508 -94.3175 219° Southwest 348 400 13,000 -2,291 Descending Houston Center
Sun 08:11:55 PM 30.2386 -94.3253 209° Southwest 350 403 12,800 -1,279 Descending Houston Center
Sun 08:12:54 PM 30.1911 -94.3861 228° Southwest 305 351 11,700 -1,235 Descending Houston Center
Sun 08:13:03 PM 30.1792 -94.4056 235° Southwest 265 305 11,400 -1,258 Descending Houston Center
Sun 08:13:56 PM 30.1494 -94.4556 236° Southwest 266 306 10,400 -1,418 Descending Houston Center
Sun 08:13:58 PM 30.1392 -94.4689 228° Southwest 267 307 10,100 -1,304 Descending Houston Center
Sun 08:15:05 PM 30.0944 -94.5472 237° Southwest 273 314 8,900 -984 Descending Houston Center
Sun 08:16:00 PM 30.0625 -94.6014 236° Southwest 270 311 8,100 -1,082 Descending Houston Center
Sun 08:16:06 PM 30.0489 -94.6208 231° Southwest 266 306 7,800 -1,082 Descending Houston Center
Sun 08:17:01 PM 30.0206 -94.6706 237° Southwest 264 304 7,000 -1,082 Descending Houston Center
Sun 08:17:07 PM 30.0053 -94.6914 230° Southwest 262 302 6,700 -2,129 Descending Houston Center
Sun 08:18:03 PM 29.9728 -94.7542 239° Southwest 260 299 4,800 -2,164 Descending Houston Center
Sun 08:18:08 PM 29.9744 -94.7631 282° West 256 295 4,500 -968 Descending Houston Center
Sun 08:19:05 PM 29.9772 -94.8383 272° West 266 306 3,800 -787 Descending Houston Center
Sun 08:19:09 PM 29.9761 -94.8472 262° West 260 299 3,700 -774 Descending Houston Center
Sun 08:20:07 PM 29.9783 -94.9158 272° West 249 287 3,000 -787 Descending Houston Center
Sun 08:20:10 PM 29.9756 -94.9294 257° West 234 269 2,900 -508 Descending Houston Center
Sun 08:21:06 PM 29.9772 -94.9919 272° West 233 268 2,500 -414 Descending Houston Center
Sun 08:21:08 PM 29.9783 -94.9894 63° Northeast 236 272 2,500 -295 Level Houston Center
Sun 08:22:07 PM 29.9761 -95.0692 268° West 224 258 2,200 -290 Descending Houston Center
Sun 08:22:10 PM 29.9781 -95.0614 74° East 227 261 2,200  Level Houston Center
Sun 08:23:12 PM 29.9781 -95.1319 270° West 224 258 2,200 -202 Level Houston Center
Sun 08:24:09 PM 29.9781 -95.2017 270° West 165 190 1,800 -484 Descending Houston Center
Sun 08:24:14 PM 29.9783 -95.2053 275° West 190 219 1,700 -885 Descending Houston Center
Sun 08:25:10 PM 29.9769 -95.2572 268° West 145 167 900 -774 Descending Houston Center
Sun 08:25:16 PM 29.9783 -95.2578 341° North 169 194 900 -537 Level Houston Center
Sun 08:26:17 PM 29.9792 -95.3092 271° West 159 183 300 -590 Descending Houston Center
Sun 08:28:00 PM 29.9833 -95.3333 274° West  Level FlightAware Approximate

Login

Don't have an account? Register now (free) for customized features, flight alerts, and more!